sensor_id;sensor_type;location;lat;lon;timestamp;P1;durP1;ratioP1;P2;durP2;ratioP2
32216;SDS011;67098;51.140;4.088;2023-11-22T00:00:40;22.67;;;14.35;;
32216;SDS011;67098;51.140;4.088;2023-11-22T00:03:06;25.75;;;15.30;;
32216;SDS011;67098;51.140;4.088;2023-11-22T00:05:32;21.65;;;13.50;;
32216;SDS011;67098;51.140;4.088;2023-11-22T00:07:58;26.88;;;15.02;;
32216;SDS011;67098;51.140;4.088;2023-11-22T00:10:24;25.25;;;15.32;;
32216;SDS011;67098;51.140;4.088;2023-11-22T00:12:49;29.27;;;15.57;;
32216;SDS011;67098;51.140;4.088;2023-11-22T00:15:15;24.30;;;14.77;;
32216;SDS011;67098;51.140;4.088;2023-11-22T00:17:46;26.40;;;15.30;;
32216;SDS011;67098;51.140;4.088;2023-11-22T00:20:13;23.45;;;14.50;;
32216;SDS011;67098;51.140;4.088;2023-11-22T00:22:39;26.58;;;15.40;;
32216;SDS011;67098;51.140;4.088;2023-11-22T00:25:05;26.08;;;15.27;;
32216;SDS011;67098;51.140;4.088;2023-11-22T00:27:31;24.20;;;12.98;;
32216;SDS011;67098;51.140;4.088;2023-11-22T00:29:57;25.20;;;14.63;;
32216;SDS011;67098;51.140;4.088;2023-11-22T00:32:24;21.70;;;13.77;;
32216;SDS011;67098;51.140;4.088;2023-11-22T00:34:51;23.13;;;13.63;;
32216;SDS011;67098;51.140;4.088;2023-11-22T00:37:17;25.30;;;14.05;;
32216;SDS011;67098;51.140;4.088;2023-11-22T00:39:43;26.38;;;13.90;;
32216;SDS011;67098;51.140;4.088;2023-11-22T00:42:09;24.50;;;13.52;;
32216;SDS011;67098;51.140;4.088;2023-11-22T00:44:34;20.52;;;12.68;;
32216;SDS011;67098;51.140;4.088;2023-11-22T00:47:01;21.85;;;12.98;;
32216;SDS011;67098;51.140;4.088;2023-11-22T00:49:27;21.98;;;13.07;;
32216;SDS011;67098;51.140;4.088;2023-11-22T00:51:53;22.73;;;13.23;;
32216;SDS011;67098;51.140;4.088;2023-11-22T00:54:19;23.67;;;13.60;;
32216;SDS011;67098;51.140;4.088;2023-11-22T00:56:45;21.85;;;13.30;;
32216;SDS011;67098;51.140;4.088;2023-11-22T00:59:11;27.08;;;13.50;;
32216;SDS011;67098;51.140;4.088;2023-11-22T01:01:37;24.63;;;13.13;;
32216;SDS011;67098;51.140;4.088;2023-11-22T01:04:03;22.63;;;12.98;;
32216;SDS011;67098;51.140;4.088;2023-11-22T01:06:30;20.98;;;12.85;;
32216;SDS011;67098;51.140;4.088;2023-11-22T01:08:57;22.83;;;13.02;;
32216;SDS011;67098;51.140;4.088;2023-11-22T01:11:23;19.40;;;12.55;;
32216;SDS011;67098;51.140;4.088;2023-11-22T01:13:48;19.40;;;12.15;;
32216;SDS011;67098;51.140;4.088;2023-11-22T01:16:14;20.80;;;12.85;;
32216;SDS011;67098;51.140;4.088;2023-11-22T01:18:41;23.33;;;13.00;;
32216;SDS011;67098;51.140;4.088;2023-11-22T01:21:06;29.80;;;15.00;;
32216;SDS011;67098;51.140;4.088;2023-11-22T01:23:33;24.30;;;14.32;;
32216;SDS011;67098;51.140;4.088;2023-11-22T01:25:59;22.42;;;13.27;;
32216;SDS011;67098;51.140;4.088;2023-11-22T01:28:27;26.85;;;13.45;;
32216;SDS011;67098;51.140;4.088;2023-11-22T01:30:54;27.38;;;13.85;;
32216;SDS011;67098;51.140;4.088;2023-11-22T01:33:21;25.17;;;13.60;;
32216;SDS011;67098;51.140;4.088;2023-11-22T01:35:47;24.95;;;12.82;;
32216;SDS011;67098;51.140;4.088;2023-11-22T01:38:13;23.83;;;14.45;;
32216;SDS011;67098;51.140;4.088;2023-11-22T01:40:48;25.75;;;14.98;;
32216;SDS011;67098;51.140;4.088;2023-11-22T01:43:19;27.73;;;14.57;;
32216;SDS011;67098;51.140;4.088;2023-11-22T01:45:46;30.17;;;14.55;;
32216;SDS011;67098;51.140;4.088;2023-11-22T01:48:12;26.00;;;14.50;;
32216;SDS011;67098;51.140;4.088;2023-11-22T01:50:40;25.08;;;14.30;;
32216;SDS011;67098;51.140;4.088;2023-11-22T01:53:10;25.02;;;14.15;;
32216;SDS011;67098;51.140;4.088;2023-11-22T01:55:38;26.13;;;13.80;;
32216;SDS011;67098;51.140;4.088;2023-11-22T01:58:04;20.92;;;12.52;;
32216;SDS011;67098;51.140;4.088;2023-11-22T02:00:32;21.20;;;12.90;;
32216;SDS011;67098;51.140;4.088;2023-11-22T02:03:29;23.00;;;13.07;;
32216;SDS011;67098;51.140;4.088;2023-11-22T02:05:55;23.13;;;12.57;;
32216;SDS011;67098;51.140;4.088;2023-11-22T02:08:21;23.42;;;13.18;;
32216;SDS011;67098;51.140;4.088;2023-11-22T02:10:56;24.23;;;11.77;;
32216;SDS011;67098;51.140;4.088;2023-11-22T02:13:23;20.08;;;11.38;;
32216;SDS011;67098;51.140;4.088;2023-11-22T02:15:50;19.35;;;10.77;;
32216;SDS011;67098;51.140;4.088;2023-11-22T02:18:17;18.73;;;10.00;;
32216;SDS011;67098;51.140;4.088;2023-11-22T02:20:43;15.52;;;9.35;;
32216;SDS011;67098;51.140;4.088;2023-11-22T02:23:10;18.95;;;9.82;;
32216;SDS011;67098;51.140;4.088;2023-11-22T02:25:36;16.67;;;9.30;;
32216;SDS011;67098;51.140;4.088;2023-11-22T02:28:02;15.73;;;9.52;;
32216;SDS011;67098;51.140;4.088;2023-11-22T02:30:28;17.40;;;9.63;;
32216;SDS011;67098;51.140;4.088;2023-11-22T02:32:54;18.48;;;10.43;;
32216;SDS011;67098;51.140;4.088;2023-11-22T02:35:20;18.63;;;10.63;;
32216;SDS011;67098;51.140;4.088;2023-11-22T02:37:46;19.52;;;9.95;;
32216;SDS011;67098;51.140;4.088;2023-11-22T02:40:17;18.30;;;10.32;;
32216;SDS011;67098;51.140;4.088;2023-11-22T02:42:45;21.77;;;10.57;;
32216;SDS011;67098;51.140;4.088;2023-11-22T02:45:12;18.55;;;10.18;;
32216;SDS011;67098;51.140;4.088;2023-11-22T02:47:39;18.33;;;11.80;;
32216;SDS011;67098;51.140;4.088;2023-11-22T02:50:05;18.55;;;11.40;;
32216;SDS011;67098;51.140;4.088;2023-11-22T02:52:31;23.85;;;11.40;;
32216;SDS011;67098;51.140;4.088;2023-11-22T02:54:58;23.80;;;12.30;;
32216;SDS011;67098;51.140;4.088;2023-11-22T02:57:24;18.90;;;11.30;;
32216;SDS011;67098;51.140;4.088;2023-11-22T02:59:50;20.33;;;11.65;;
32216;SDS011;67098;51.140;4.088;2023-11-22T03:02:15;22.25;;;12.55;;
32216;SDS011;67098;51.140;4.088;2023-11-22T03:04:42;23.75;;;12.82;;
32216;SDS011;67098;51.140;4.088;2023-11-22T03:07:08;19.98;;;11.82;;
32216;SDS011;67098;51.140;4.088;2023-11-22T03:09:34;22.90;;;12.75;;
32216;SDS011;67098;51.140;4.088;2023-11-22T03:12:01;19.63;;;10.70;;
32216;SDS011;67098;51.140;4.088;2023-11-22T03:14:28;18.73;;;10.38;;
32216;SDS011;67098;51.140;4.088;2023-11-22T03:16:54;21.77;;;10.55;;
32216;SDS011;67098;51.140;4.088;2023-11-22T03:19:20;16.65;;;10.35;;
32216;SDS011;67098;51.140;4.088;2023-11-22T03:21:46;17.30;;;10.02;;
32216;SDS011;67098;51.140;4.088;2023-11-22T03:24:12;20.48;;;10.00;;
32216;SDS011;67098;51.140;4.088;2023-11-22T03:26:38;19.63;;;10.15;;
32216;SDS011;67098;51.140;4.088;2023-11-22T03:29:04;18.35;;;10.60;;
32216;SDS011;67098;51.140;4.088;2023-11-22T03:31:30;20.13;;;11.05;;
32216;SDS011;67098;51.140;4.088;2023-11-22T03:33:56;20.08;;;11.73;;
32216;SDS011;67098;51.140;4.088;2023-11-22T03:36:22;18.08;;;10.70;;
32216;SDS011;67098;51.140;4.088;2023-11-22T03:38:49;19.55;;;10.50;;
32216;SDS011;67098;51.140;4.088;2023-11-22T03:41:15;17.35;;;10.68;;
32216;SDS011;67098;51.140;4.088;2023-11-22T03:43:46;22.65;;;11.30;;
32216;SDS011;67098;51.140;4.088;2023-11-22T03:46:12;18.40;;;10.63;;
32216;SDS011;67098;51.140;4.088;2023-11-22T03:48:37;22.08;;;10.38;;
32216;SDS011;67098;51.140;4.088;2023-11-22T03:51:03;23.23;;;10.65;;
32216;SDS011;67098;51.140;4.088;2023-11-22T03:53:29;19.42;;;11.02;;
32216;SDS011;67098;51.140;4.088;2023-11-22T03:55:55;20.02;;;11.15;;
32216;SDS011;67098;51.140;4.088;2023-11-22T03:58:21;18.65;;;10.82;;
32216;SDS011;67098;51.140;4.088;2023-11-22T04:00:47;19.42;;;10.02;;
32216;SDS011;67098;51.140;4.088;2023-11-22T04:03:12;23.27;;;11.18;;
32216;SDS011;67098;51.140;4.088;2023-11-22T04:05:38;20.10;;;10.35;;
32216;SDS011;67098;51.140;4.088;2023-11-22T04:08:04;18.08;;;10.18;;
32216;SDS011;67098;51.140;4.088;2023-11-22T04:10:30;18.20;;;10.27;;
32216;SDS011;67098;51.140;4.088;2023-11-22T04:12:56;16.10;;;9.93;;
32216;SDS011;67098;51.140;4.088;2023-11-22T04:15:22;18.65;;;9.55;;
32216;SDS011;67098;51.140;4.088;2023-11-22T04:17:48;17.42;;;10.35;;
32216;SDS011;67098;51.140;4.088;2023-11-22T04:20:14;16.27;;;9.23;;
32216;SDS011;67098;51.140;4.088;2023-11-22T04:22:40;19.88;;;9.38;;
32216;SDS011;67098;51.140;4.088;2023-11-22T04:25:12;16.55;;;10.10;;
32216;SDS011;67098;51.140;4.088;2023-11-22T04:27:41;18.95;;;10.02;;
32216;SDS011;67098;51.140;4.088;2023-11-22T04:30:07;18.40;;;10.73;;
32216;SDS011;67098;51.140;4.088;2023-11-22T04:32:38;20.88;;;11.60;;
32216;SDS011;67098;51.140;4.088;2023-11-22T04:35:04;21.05;;;11.68;;
32216;SDS011;67098;51.140;4.088;2023-11-22T04:37:31;23.33;;;12.57;;
32216;SDS011;67098;51.140;4.088;2023-11-22T04:39:58;22.75;;;12.48;;
32216;SDS011;67098;51.140;4.088;2023-11-22T04:42:24;21.05;;;11.60;;
32216;SDS011;67098;51.140;4.088;2023-11-22T04:44:49;20.48;;;11.40;;
32216;SDS011;67098;51.140;4.088;2023-11-22T04:47:15;20.35;;;10.88;;
32216;SDS011;67098;51.140;4.088;2023-11-22T04:49:41;25.38;;;12.18;;
32216;SDS011;67098;51.140;4.088;2023-11-22T04:52:07;25.67;;;12.05;;
32216;SDS011;67098;51.140;4.088;2023-11-22T04:54:32;24.27;;;12.02;;
32216;SDS011;67098;51.140;4.088;2023-11-22T04:56:59;22.17;;;11.65;;
32216;SDS011;67098;51.140;4.088;2023-11-22T04:59:24;26.70;;;12.20;;
32216;SDS011;67098;51.140;4.088;2023-11-22T05:01:50;22.02;;;12.02;;
32216;SDS011;67098;51.140;4.088;2023-11-22T05:04:16;24.02;;;12.85;;
32216;SDS011;67098;51.140;4.088;2023-11-22T05:06:43;24.60;;;12.30;;
32216;SDS011;67098;51.140;4.088;2023-11-22T05:09:10;21.23;;;12.23;;
32216;SDS011;67098;51.140;4.088;2023-11-22T05:11:36;20.55;;;10.95;;
32216;SDS011;67098;51.140;4.088;2023-11-22T05:14:02;22.10;;;11.52;;
32216;SDS011;67098;51.140;4.088;2023-11-22T05:16:27;24.35;;;12.68;;
32216;SDS011;67098;51.140;4.088;2023-11-22T05:18:53;22.13;;;12.15;;
32216;SDS011;67098;51.140;4.088;2023-11-22T05:21:19;25.10;;;12.88;;
32216;SDS011;67098;51.140;4.088;2023-11-22T05:23:45;27.30;;;11.85;;
32216;SDS011;67098;51.140;4.088;2023-11-22T05:26:10;21.90;;;12.27;;
32216;SDS011;67098;51.140;4.088;2023-11-22T05:28:36;21.85;;;12.07;;
32216;SDS011;67098;51.140;4.088;2023-11-22T05:31:02;22.50;;;12.98;;
32216;SDS011;67098;51.140;4.088;2023-11-22T05:33:28;23.65;;;13.07;;
32216;SDS011;67098;51.140;4.088;2023-11-22T05:35:54;25.40;;;12.68;;
32216;SDS011;67098;51.140;4.088;2023-11-22T05:38:19;25.15;;;13.95;;
32216;SDS011;67098;51.140;4.088;2023-11-22T05:40:45;21.63;;;12.95;;
32216;SDS011;67098;51.140;4.088;2023-11-22T05:43:11;26.65;;;13.52;;
32216;SDS011;67098;51.140;4.088;2023-11-22T05:45:36;22.05;;;12.38;;
32216;SDS011;67098;51.140;4.088;2023-11-22T05:48:02;25.50;;;12.77;;
32216;SDS011;67098;51.140;4.088;2023-11-22T05:50:28;26.17;;;12.82;;
32216;SDS011;67098;51.140;4.088;2023-11-22T05:52:54;28.63;;;12.90;;
32216;SDS011;67098;51.140;4.088;2023-11-22T05:55:19;29.20;;;13.95;;
32216;SDS011;67098;51.140;4.088;2023-11-22T05:57:46;26.63;;;14.23;;
32216;SDS011;67098;51.140;4.088;2023-11-22T06:00:11;24.88;;;13.52;;
32216;SDS011;67098;51.140;4.088;2023-11-22T06:02:39;24.35;;;14.07;;
32216;SDS011;67098;51.140;4.088;2023-11-22T06:05:05;27.55;;;14.00;;
32216;SDS011;67098;51.140;4.088;2023-11-22T06:07:31;26.02;;;13.02;;
32216;SDS011;67098;51.140;4.088;2023-11-22T06:09:57;22.23;;;12.13;;
32216;SDS011;67098;51.140;4.088;2023-11-22T06:12:23;28.67;;;13.48;;
32216;SDS011;67098;51.140;4.088;2023-11-22T06:14:48;23.40;;;12.35;;
32216;SDS011;67098;51.140;4.088;2023-11-22T06:17:14;20.05;;;12.15;;
32216;SDS011;67098;51.140;4.088;2023-11-22T06:19:40;23.02;;;12.18;;
32216;SDS011;67098;51.140;4.088;2023-11-22T06:22:09;22.75;;;12.30;;
32216;SDS011;67098;51.140;4.088;2023-11-22T06:24:34;21.55;;;12.43;;
32216;SDS011;67098;51.140;4.088;2023-11-22T06:27:01;25.10;;;13.73;;
32216;SDS011;67098;51.140;4.088;2023-11-22T06:29:28;22.65;;;13.48;;
32216;SDS011;67098;51.140;4.088;2023-11-22T06:31:54;25.20;;;13.73;;
32216;SDS011;67098;51.140;4.088;2023-11-22T06:34:20;23.70;;;13.77;;
32216;SDS011;67098;51.140;4.088;2023-11-22T06:36:45;24.35;;;13.43;;
32216;SDS011;67098;51.140;4.088;2023-11-22T06:39:11;28.98;;;13.60;;
32216;SDS011;67098;51.140;4.088;2023-11-22T06:41:40;24.17;;;13.60;;
32216;SDS011;67098;51.140;4.088;2023-11-22T06:44:06;24.95;;;13.55;;
32216;SDS011;67098;51.140;4.088;2023-11-22T06:46:32;25.15;;;13.68;;
32216;SDS011;67098;51.140;4.088;2023-11-22T06:48:58;27.33;;;13.25;;
32216;SDS011;67098;51.140;4.088;2023-11-22T06:51:24;24.92;;;13.52;;
32216;SDS011;67098;51.140;4.088;2023-11-22T06:53:50;22.50;;;13.63;;
32216;SDS011;67098;51.140;4.088;2023-11-22T06:56:17;25.92;;;13.55;;
32216;SDS011;67098;51.140;4.088;2023-11-22T06:58:43;24.80;;;13.32;;
32216;SDS011;67098;51.140;4.088;2023-11-22T07:01:09;23.60;;;13.65;;
32216;SDS011;67098;51.140;4.088;2023-11-22T07:03:35;29.02;;;13.82;;
32216;SDS011;67098;51.140;4.088;2023-11-22T07:06:03;27.40;;;14.68;;
32216;SDS011;67098;51.140;4.088;2023-11-22T07:08:29;23.42;;;13.35;;
32216;SDS011;67098;51.140;4.088;2023-11-22T07:10:55;29.98;;;15.55;;
32216;SDS011;67098;51.140;4.088;2023-11-22T07:13:22;23.50;;;13.95;;
32216;SDS011;67098;51.140;4.088;2023-11-22T07:15:49;32.38;;;15.65;;
32216;SDS011;67098;51.140;4.088;2023-11-22T07:18:16;25.83;;;14.35;;
32216;SDS011;67098;51.140;4.088;2023-11-22T07:20:41;31.13;;;15.32;;
32216;SDS011;67098;51.140;4.088;2023-11-22T07:23:07;26.58;;;14.90;;
32216;SDS011;67098;51.140;4.088;2023-11-22T07:25:38;29.77;;;15.52;;
32216;SDS011;67098;51.140;4.088;2023-11-22T07:28:06;27.48;;;14.88;;
32216;SDS011;67098;51.140;4.088;2023-11-22T07:30:32;26.25;;;14.93;;
32216;SDS011;67098;51.140;4.088;2023-11-22T07:32:58;28.50;;;14.60;;
32216;SDS011;67098;51.140;4.088;2023-11-22T07:35:24;31.70;;;16.80;;
32216;SDS011;67098;51.140;4.088;2023-11-22T07:37:53;28.42;;;15.57;;
32216;SDS011;67098;51.140;4.088;2023-11-22T07:40:19;27.52;;;15.48;;
32216;SDS011;67098;51.140;4.088;2023-11-22T07:42:47;31.20;;;15.57;;
32216;SDS011;67098;51.140;4.088;2023-11-22T07:45:14;25.80;;;14.52;;
32216;SDS011;67098;51.140;4.088;2023-11-22T07:47:40;30.75;;;15.77;;
32216;SDS011;67098;51.140;4.088;2023-11-22T07:50:08;33.60;;;16.42;;
32216;SDS011;67098;51.140;4.088;2023-11-22T07:52:35;32.80;;;16.65;;
32216;SDS011;67098;51.140;4.088;2023-11-22T07:55:03;35.95;;;17.88;;
32216;SDS011;67098;51.140;4.088;2023-11-22T07:57:33;45.50;;;21.13;;
32216;SDS011;67098;51.140;4.088;2023-11-22T08:00:00;40.25;;;21.27;;
32216;SDS011;67098;51.140;4.088;2023-11-22T08:02:26;34.42;;;20.02;;
32216;SDS011;67098;51.140;4.088;2023-11-22T08:04:52;39.15;;;22.77;;
32216;SDS011;67098;51.140;4.088;2023-11-22T08:07:18;42.75;;;24.50;;
32216;SDS011;67098;51.140;4.088;2023-11-22T08:09:46;49.65;;;24.98;;
32216;SDS011;67098;51.140;4.088;2023-11-22T08:12:12;40.88;;;23.65;;
32216;SDS011;67098;51.140;4.088;2023-11-22T08:14:39;48.65;;;24.35;;
32216;SDS011;67098;51.140;4.088;2023-11-22T08:17:09;40.40;;;23.98;;
32216;SDS011;67098;51.140;4.088;2023-11-22T08:19:39;40.17;;;22.90;;
32216;SDS011;67098;51.140;4.088;2023-11-22T08:22:05;44.75;;;23.75;;
32216;SDS011;67098;51.140;4.088;2023-11-22T08:24:31;42.92;;;23.40;;
32216;SDS011;67098;51.140;4.088;2023-11-22T08:26:57;46.60;;;22.80;;
32216;SDS011;67098;51.140;4.088;2023-11-22T08:29:24;44.05;;;23.17;;
32216;SDS011;67098;51.140;4.088;2023-11-22T08:31:49;41.30;;;22.80;;
32216;SDS011;67098;51.140;4.088;2023-11-22T08:34:16;45.35;;;23.38;;
32216;SDS011;67098;51.140;4.088;2023-11-22T08:36:42;46.67;;;23.65;;
32216;SDS011;67098;51.140;4.088;2023-11-22T08:39:08;46.78;;;24.35;;
32216;SDS011;67098;51.140;4.088;2023-11-22T08:41:34;47.75;;;24.77;;
32216;SDS011;67098;51.140;4.088;2023-11-22T08:44:00;43.35;;;23.83;;
32216;SDS011;67098;51.140;4.088;2023-11-22T08:46:25;46.03;;;24.63;;
32216;SDS011;67098;51.140;4.088;2023-11-22T08:48:51;44.53;;;24.02;;
32216;SDS011;67098;51.140;4.088;2023-11-22T08:51:17;43.08;;;24.35;;
32216;SDS011;67098;51.140;4.088;2023-11-22T08:53:43;47.90;;;26.15;;
32216;SDS011;67098;51.140;4.088;2023-11-22T08:56:10;41.78;;;24.67;;
32216;SDS011;67098;51.140;4.088;2023-11-22T08:58:36;40.22;;;22.65;;
32216;SDS011;67098;51.140;4.088;2023-11-22T09:01:04;40.55;;;22.80;;
32216;SDS011;67098;51.140;4.088;2023-11-22T09:03:30;41.90;;;22.98;;
32216;SDS011;67098;51.140;4.088;2023-11-22T09:05:57;49.80;;;24.48;;
32216;SDS011;67098;51.140;4.088;2023-11-22T09:08:23;43.58;;;24.38;;
32216;SDS011;67098;51.140;4.088;2023-11-22T09:10:49;45.35;;;24.33;;
32216;SDS011;67098;51.140;4.088;2023-11-22T09:13:15;48.25;;;26.90;;
32216;SDS011;67098;51.140;4.088;2023-11-22T09:15:42;43.55;;;24.33;;
32216;SDS011;67098;51.140;4.088;2023-11-22T09:18:09;47.05;;;25.38;;
32216;SDS011;67098;51.140;4.088;2023-11-22T09:20:37;42.88;;;24.02;;
32216;SDS011;67098;51.140;4.088;2023-11-22T09:23:04;47.35;;;24.98;;
32216;SDS011;67098;51.140;4.088;2023-11-22T09:25:32;46.80;;;26.02;;
32216;SDS011;67098;51.140;4.088;2023-11-22T09:28:00;49.33;;;25.42;;
32216;SDS011;67098;51.140;4.088;2023-11-22T09:30:31;48.40;;;24.98;;
32216;SDS011;67098;51.140;4.088;2023-11-22T09:33:18;48.15;;;25.63;;
32216;SDS011;67098;51.140;4.088;2023-11-22T09:35:45;46.33;;;25.50;;
32216;SDS011;67098;51.140;4.088;2023-11-22T09:38:13;52.72;;;28.65;;
32216;SDS011;67098;51.140;4.088;2023-11-22T09:40:41;58.13;;;30.08;;
32216;SDS011;67098;51.140;4.088;2023-11-22T09:43:11;57.22;;;29.95;;
32216;SDS011;67098;51.140;4.088;2023-11-22T09:45:42;55.08;;;31.20;;
32216;SDS011;67098;51.140;4.088;2023-11-22T09:48:14;55.55;;;31.65;;
32216;SDS011;67098;51.140;4.088;2023-11-22T09:50:49;58.47;;;32.58;;
32216;SDS011;67098;51.140;4.088;2023-11-22T09:54:11;64.60;;;32.47;;
32216;SDS011;67098;51.140;4.088;2023-11-22T09:56:25;60.15;;;32.40;;
32216;SDS011;67098;51.140;4.088;2023-11-22T09:58:55;56.90;;;32.53;;
32216;SDS011;67098;51.140;4.088;2023-11-22T10:01:25;63.17;;;33.83;;
32216;SDS011;67098;51.140;4.088;2023-11-22T10:03:54;59.65;;;32.50;;
32216;SDS011;67098;51.140;4.088;2023-11-22T10:06:20;59.65;;;32.78;;
32216;SDS011;67098;51.140;4.088;2023-11-22T10:08:47;59.13;;;31.25;;
32216;SDS011;67098;51.140;4.088;2023-11-22T10:11:16;63.65;;;32.88;;
32216;SDS011;67098;51.140;4.088;2023-11-22T10:13:43;62.28;;;32.83;;
32216;SDS011;67098;51.140;4.088;2023-11-22T10:16:12;54.40;;;31.20;;
32216;SDS011;67098;51.140;4.088;2023-11-22T10:18:47;59.83;;;33.05;;
32216;SDS011;67098;51.140;4.088;2023-11-22T10:21:20;59.67;;;34.50;;
32216;SDS011;67098;51.140;4.088;2023-11-22T10:23:47;59.17;;;32.75;;
32216;SDS011;67098;51.140;4.088;2023-11-22T10:26:13;58.45;;;33.80;;
32216;SDS011;67098;51.140;4.088;2023-11-22T10:28:42;64.25;;;34.15;;
32216;SDS011;67098;51.140;4.088;2023-11-22T10:31:08;62.80;;;33.63;;
32216;SDS011;67098;51.140;4.088;2023-11-22T10:33:40;66.22;;;33.67;;
32216;SDS011;67098;51.140;4.088;2023-11-22T10:36:09;62.35;;;32.47;;
32216;SDS011;67098;51.140;4.088;2023-11-22T10:38:35;60.67;;;33.78;;
32216;SDS011;67098;51.140;4.088;2023-11-22T10:41:04;63.28;;;34.28;;
32216;SDS011;67098;51.140;4.088;2023-11-22T10:43:30;64.95;;;33.08;;
32216;SDS011;67098;51.140;4.088;2023-11-22T10:46:00;60.65;;;32.85;;
32216;SDS011;67098;51.140;4.088;2023-11-22T10:48:35;63.28;;;34.05;;
32216;SDS011;67098;51.140;4.088;2023-11-22T10:51:02;69.68;;;36.25;;
32216;SDS011;67098;51.140;4.088;2023-11-22T10:53:33;73.47;;;36.63;;
32216;SDS011;67098;51.140;4.088;2023-11-22T10:56:17;82.97;;;40.08;;
32216;SDS011;67098;51.140;4.088;2023-11-22T10:58:48;81.55;;;39.28;;
32216;SDS011;67098;51.140;4.088;2023-11-22T11:01:15;75.82;;;38.28;;
32216;SDS011;67098;51.140;4.088;2023-11-22T11:03:44;77.78;;;39.90;;
32216;SDS011;67098;51.140;4.088;2023-11-22T11:06:19;79.53;;;38.97;;
32216;SDS011;67098;51.140;4.088;2023-11-22T11:08:53;72.22;;;37.78;;
32216;SDS011;67098;51.140;4.088;2023-11-22T11:11:24;73.53;;;36.65;;
32216;SDS011;67098;51.140;4.088;2023-11-22T11:13:52;68.72;;;36.42;;
32216;SDS011;67098;51.140;4.088;2023-11-22T11:16:18;66.28;;;34.55;;
32216;SDS011;67098;51.140;4.088;2023-11-22T11:18:45;63.67;;;32.80;;
32216;SDS011;67098;51.140;4.088;2023-11-22T11:21:12;63.05;;;32.53;;
32216;SDS011;67098;51.140;4.088;2023-11-22T11:23:40;61.20;;;33.10;;
32216;SDS011;67098;51.140;4.088;2023-11-22T11:26:14;55.25;;;27.98;;
32216;SDS011;67098;51.140;4.088;2023-11-22T11:28:42;64.93;;;32.78;;
32216;SDS011;67098;51.140;4.088;2023-11-22T11:31:09;61.05;;;31.77;;
32216;SDS011;67098;51.140;4.088;2023-11-22T11:33:44;63.05;;;32.35;;
32216;SDS011;67098;51.140;4.088;2023-11-22T11:36:26;79.72;;;36.22;;
32216;SDS011;67098;51.140;4.088;2023-11-22T11:38:54;69.93;;;34.75;;
32216;SDS011;67098;51.140;4.088;2023-11-22T11:41:40;78.13;;;35.17;;
32216;SDS011;67098;51.140;4.088;2023-11-22T11:44:09;80.53;;;36.17;;
32216;SDS011;67098;51.140;4.088;2023-11-22T11:46:38;79.10;;;37.00;;
32216;SDS011;67098;51.140;4.088;2023-11-22T11:49:08;71.50;;;34.38;;
32216;SDS011;67098;51.140;4.088;2023-11-22T11:51:36;68.78;;;33.17;;
32216;SDS011;67098;51.140;4.088;2023-11-22T11:54:03;64.68;;;32.67;;
32216;SDS011;67098;51.140;4.088;2023-11-22T11:56:30;71.32;;;35.22;;
32216;SDS011;67098;51.140;4.088;2023-11-22T11:58:58;64.13;;;32.03;;
32216;SDS011;67098;51.140;4.088;2023-11-22T12:01:24;72.57;;;34.97;;
32216;SDS011;67098;51.140;4.088;2023-11-22T12:03:54;68.88;;;34.28;;
32216;SDS011;67098;51.140;4.088;2023-11-22T12:06:20;69.90;;;33.83;;
32216;SDS011;67098;51.140;4.088;2023-11-22T12:08:46;65.85;;;32.83;;
32216;SDS011;67098;51.140;4.088;2023-11-22T12:11:12;67.53;;;32.67;;
32216;SDS011;67098;51.140;4.088;2023-11-22T12:13:41;66.53;;;33.92;;
32216;SDS011;67098;51.140;4.088;2023-11-22T12:16:13;66.63;;;33.92;;
32216;SDS011;67098;51.140;4.088;2023-11-22T12:21:10;77.95;;;38.42;;
32216;SDS011;67098;51.140;4.088;2023-11-22T12:23:38;67.40;;;33.38;;
32216;SDS011;67098;51.140;4.088;2023-11-22T12:26:05;66.95;;;34.75;;
32216;SDS011;67098;51.140;4.088;2023-11-22T12:28:36;59.15;;;31.42;;
32216;SDS011;67098;51.140;4.088;2023-11-22T12:31:08;55.33;;;29.63;;
32216;SDS011;67098;51.140;4.088;2023-11-22T12:33:35;53.80;;;28.50;;
32216;SDS011;67098;51.140;4.088;2023-11-22T12:36:02;58.03;;;29.80;;
32216;SDS011;67098;51.140;4.088;2023-11-22T12:38:29;55.33;;;27.52;;
32216;SDS011;67098;51.140;4.088;2023-11-22T12:40:58;49.65;;;26.90;;
32216;SDS011;67098;51.140;4.088;2023-11-22T12:43:24;49.10;;;26.88;;
32216;SDS011;67098;51.140;4.088;2023-11-22T12:46:00;47.58;;;25.42;;
32216;SDS011;67098;51.140;4.088;2023-11-22T12:48:26;44.70;;;25.48;;
32216;SDS011;67098;51.140;4.088;2023-11-22T12:50:55;51.78;;;27.50;;
32216;SDS011;67098;51.140;4.088;2023-11-22T12:53:22;46.88;;;25.92;;
32216;SDS011;67098;51.140;4.088;2023-11-22T12:55:49;47.17;;;24.45;;
32216;SDS011;67098;51.140;4.088;2023-11-22T12:58:17;47.95;;;25.67;;
32216;SDS011;67098;51.140;4.088;2023-11-22T13:00:44;48.42;;;26.05;;
32216;SDS011;67098;51.140;4.088;2023-11-22T13:03:12;43.65;;;24.90;;
32216;SDS011;67098;51.140;4.088;2023-11-22T13:05:44;46.15;;;26.08;;
32216;SDS011;67098;51.140;4.088;2023-11-22T13:08:11;46.63;;;25.70;;
32216;SDS011;67098;51.140;4.088;2023-11-22T13:10:45;41.22;;;22.27;;
32216;SDS011;67098;51.140;4.088;2023-11-22T13:13:13;38.92;;;22.70;;
32216;SDS011;67098;51.140;4.088;2023-11-22T13:15:39;37.20;;;21.88;;
32216;SDS011;67098;51.140;4.088;2023-11-22T13:18:08;39.40;;;22.80;;
32216;SDS011;67098;51.140;4.088;2023-11-22T13:20:34;44.90;;;23.80;;
32216;SDS011;67098;51.140;4.088;2023-11-22T13:23:00;39.40;;;22.40;;
32216;SDS011;67098;51.140;4.088;2023-11-22T13:25:28;40.92;;;23.70;;
32216;SDS011;67098;51.140;4.088;2023-11-22T13:27:53;37.20;;;21.40;;
32216;SDS011;67098;51.140;4.088;2023-11-22T13:30:21;36.75;;;21.88;;
32216;SDS011;67098;51.140;4.088;2023-11-22T13:32:51;37.88;;;22.33;;
32216;SDS011;67098;51.140;4.088;2023-11-22T13:35:17;42.67;;;22.38;;
32216;SDS011;67098;51.140;4.088;2023-11-22T13:37:44;40.08;;;22.48;;
32216;SDS011;67098;51.140;4.088;2023-11-22T13:40:12;39.33;;;22.02;;
32216;SDS011;67098;51.140;4.088;2023-11-22T13:42:42;37.05;;;21.70;;
32216;SDS011;67098;51.140;4.088;2023-11-22T13:45:10;37.75;;;21.58;;
32216;SDS011;67098;51.140;4.088;2023-11-22T13:47:40;37.20;;;21.40;;
32216;SDS011;67098;51.140;4.088;2023-11-22T13:50:08;38.65;;;21.95;;
32216;SDS011;67098;51.140;4.088;2023-11-22T13:52:34;37.78;;;21.52;;
32216;SDS011;67098;51.140;4.088;2023-11-22T13:55:00;33.42;;;19.80;;
32216;SDS011;67098;51.140;4.088;2023-11-22T13:57:28;35.60;;;20.55;;
32216;SDS011;67098;51.140;4.088;2023-11-22T13:59:56;38.53;;;21.15;;
32216;SDS011;67098;51.140;4.088;2023-11-22T14:02:22;36.33;;;21.25;;
32216;SDS011;67098;51.140;4.088;2023-11-22T14:04:48;43.05;;;23.27;;
32216;SDS011;67098;51.140;4.088;2023-11-22T14:07:14;40.50;;;22.13;;
32216;SDS011;67098;51.140;4.088;2023-11-22T14:09:39;38.47;;;21.23;;
32216;SDS011;67098;51.140;4.088;2023-11-22T14:12:05;34.05;;;20.17;;
32216;SDS011;67098;51.140;4.088;2023-11-22T14:14:31;36.03;;;20.52;;
32216;SDS011;67098;51.140;4.088;2023-11-22T14:16:56;35.30;;;19.52;;
32216;SDS011;67098;51.140;4.088;2023-11-22T14:19:22;37.25;;;21.25;;
32216;SDS011;67098;51.140;4.088;2023-11-22T14:21:48;39.47;;;20.83;;
32216;SDS011;67098;51.140;4.088;2023-11-22T14:24:14;34.78;;;19.45;;